Huvudsida
METAR-TAF:

METAR-TAF

Flygplatser :

Amata Kabua International Airport

Majuro, Marshallöarna

latitud: 07-04N, longitud: 171-17E, höjd: 2 m

Aktuellt väderrapport

Denna rapport gjordes för 7 timmar och 56 minuter sedan, klockan 23:50 UTC
Vind 13 kt från ost/nordost
Temperatur 30°C
Fuktighet 75%
Tryck 1011 hPa
Sikt: 24.1 km
Få moln på en höjd av 1500 ft
Spridda moln på en höjd av 5000 ft
Brutna moln på en höjd av 30000 ft

METAR: PKMJ 212350Z 07013KT 15SM FEW015 SCT050 BKN300 30/25 A2984 RMK LAST

Tid: 19:46 (07:46 UTC)

Väderprognos

Denna rapport gjordes för 2 timmar och 24 minuter sedan, klockan 05:22 UTC
Prognos gäller från 22 kl. 06 UTC till 23 kl. 06 UTC
Vind 11 kt från ost
Sikt: 10 km
Spridda moln på en höjd av 1500 ft
Spridda moln på en höjd av 4500 ft
Brutna moln på en höjd av 12000 ft
skurar i närheten

TAF: PKMJ 220522Z 2206/2306 10011KT P6SM VCSH SCT015 SCT045 BKN120

Aktuella väderrapporter och prognoser från 4000 flygplatser (METAR- och TAF-rapporter).

De tillgängliga stationerna syns som gula och röda prickar på kartan.

För musen över prickarna för att se namnen på stationerna.

Klicka sedan för att få väderrapporter och prognoser.

För att ändra kartan: Klicka på de gröna knapparna med ett svart kors på för att zooma in; den gröna knappen med ett streck på för att zooma ut; eller på de gröna pilarna för angränsande kartor.


METAR-TAF: